sensor_id;sensor_type;location;lat;lon;timestamp;pressure;altitude;pressure_sealevel;temperature;humidity
24422;BME280;12600;53.326;-6.298;2023-06-26T00:02:15;101147.25;;;17.18;59.10
24422;BME280;12600;53.326;-6.298;2023-06-26T00:05:05;101156.00;;;17.20;59.21
24422;BME280;12600;53.326;-6.298;2023-06-26T00:07:56;101147.13;;;17.15;59.15
24422;BME280;12600;53.326;-6.298;2023-06-26T00:10:48;101156.53;;;17.14;59.39
24422;BME280;12600;53.326;-6.298;2023-06-26T00:13:39;101153.19;;;17.08;59.62
24422;BME280;12600;53.326;-6.298;2023-06-26T00:16:28;101147.19;;;17.06;59.66
24422;BME280;12600;53.326;-6.298;2023-06-26T00:19:19;101160.00;;;17.11;59.79
24422;BME280;12600;53.326;-6.298;2023-06-26T00:22:08;101152.97;;;17.01;60.02
24422;BME280;12600;53.326;-6.298;2023-06-26T00:24:59;101151.72;;;17.11;59.76
24422;BME280;12600;53.326;-6.298;2023-06-26T00:27:49;101155.84;;;17.04;60.26
24422;BME280;12600;53.326;-6.298;2023-06-26T00:30:38;101153.06;;;17.04;60.02
24422;BME280;12600;53.326;-6.298;2023-06-26T00:33:28;101154.03;;;17.09;59.95
24422;BME280;12600;53.326;-6.298;2023-06-26T00:36:17;101150.91;;;17.10;60.04
24422;BME280;12600;53.326;-6.298;2023-06-26T00:39:07;101161.41;;;17.17;59.82
24422;BME280;12600;53.326;-6.298;2023-06-26T00:41:58;101145.50;;;17.14;60.00
24422;BME280;12600;53.326;-6.298;2023-06-26T00:44:47;101153.44;;;17.15;60.00
24422;BME280;12600;53.326;-6.298;2023-06-26T00:47:37;101154.03;;;17.09;60.20
24422;BME280;12600;53.326;-6.298;2023-06-26T00:50:26;101152.16;;;17.00;60.86
24422;BME280;12600;53.326;-6.298;2023-06-26T00:53:16;101149.97;;;17.06;60.78
24422;BME280;12600;53.326;-6.298;2023-06-26T00:56:06;101169.28;;;17.06;60.88
24422;BME280;12600;53.326;-6.298;2023-06-26T00:58:58;101137.50;;;16.88;61.32
24422;BME280;12600;53.326;-6.298;2023-06-26T01:01:48;101161.56;;;16.99;61.52
24422;BME280;12600;53.326;-6.298;2023-06-26T01:04:38;101156.72;;;16.96;61.66
24422;BME280;12600;53.326;-6.298;2023-06-26T01:07:35;101169.03;;;16.99;61.55
24422;BME280;12600;53.326;-6.298;2023-06-26T01:10:25;101168.22;;;16.98;62.00
24422;BME280;12600;53.326;-6.298;2023-06-26T01:13:17;101153.91;;;16.84;62.29
24422;BME280;12600;53.326;-6.298;2023-06-26T01:16:09;101160.38;;;16.88;62.25
24422;BME280;12600;53.326;-6.298;2023-06-26T01:18:59;101172.66;;;16.78;63.32
24422;BME280;12600;53.326;-6.298;2023-06-26T01:21:49;101171.06;;;16.90;62.96
24422;BME280;12600;53.326;-6.298;2023-06-26T01:24:48;101160.81;;;16.78;62.84
24422;BME280;12600;53.326;-6.298;2023-06-26T01:27:45;101180.78;;;16.75;63.30
24422;BME280;12600;53.326;-6.298;2023-06-26T01:30:41;101176.91;;;16.67;63.59
24422;BME280;12600;53.326;-6.298;2023-06-26T01:33:31;101177.59;;;16.64;63.74
24422;BME280;12600;53.326;-6.298;2023-06-26T01:36:21;101184.72;;;16.65;63.60
24422;BME280;12600;53.326;-6.298;2023-06-26T01:39:12;101170.88;;;16.53;63.98
24422;BME280;12600;53.326;-6.298;2023-06-26T01:42:01;101188.56;;;16.52;64.08
24422;BME280;12600;53.326;-6.298;2023-06-26T01:44:53;101181.16;;;16.44;64.55
24422;BME280;12600;53.326;-6.298;2023-06-26T01:47:50;101179.34;;;16.48;64.38
24422;BME280;12600;53.326;-6.298;2023-06-26T01:50:40;101185.06;;;16.43;65.06
24422;BME280;12600;53.326;-6.298;2023-06-26T01:53:36;101191.06;;;16.45;64.68
24422;BME280;12600;53.326;-6.298;2023-06-26T01:56:29;101193.06;;;16.36;65.27
24422;BME280;12600;53.326;-6.298;2023-06-26T01:59:19;101166.28;;;16.15;65.14
24422;BME280;12600;53.326;-6.298;2023-06-26T02:02:11;101187.75;;;16.31;65.26
24422;BME280;12600;53.326;-6.298;2023-06-26T02:05:00;101194.59;;;16.25;65.66
24422;BME280;12600;53.326;-6.298;2023-06-26T02:07:50;101189.38;;;16.32;65.51
24422;BME280;12600;53.326;-6.298;2023-06-26T02:10:41;101177.72;;;16.26;65.73
24422;BME280;12600;53.326;-6.298;2023-06-26T02:13:30;101180.34;;;16.22;65.84
24422;BME280;12600;53.326;-6.298;2023-06-26T02:16:20;101187.00;;;16.21;66.06
24422;BME280;12600;53.326;-6.298;2023-06-26T02:19:10;101185.88;;;16.22;66.07
24422;BME280;12600;53.326;-6.298;2023-06-26T02:22:00;101185.59;;;16.15;66.59
24422;BME280;12600;53.326;-6.298;2023-06-26T02:24:49;101196.16;;;16.13;66.68
24422;BME280;12600;53.326;-6.298;2023-06-26T02:27:38;101187.25;;;16.08;67.19
24422;BME280;12600;53.326;-6.298;2023-06-26T02:30:28;101194.19;;;16.14;66.70
24422;BME280;12600;53.326;-6.298;2023-06-26T02:33:20;101207.69;;;16.07;67.06
24422;BME280;12600;53.326;-6.298;2023-06-26T02:36:10;101191.50;;;16.05;66.87
24422;BME280;12600;53.326;-6.298;2023-06-26T02:39:00;101189.09;;;15.95;67.46
24422;BME280;12600;53.326;-6.298;2023-06-26T02:41:50;101205.63;;;15.95;67.87
24422;BME280;12600;53.326;-6.298;2023-06-26T02:44:41;101193.63;;;16.00;67.30
24422;BME280;12600;53.326;-6.298;2023-06-26T02:47:30;101201.03;;;16.08;67.47
24422;BME280;12600;53.326;-6.298;2023-06-26T02:50:20;101197.84;;;15.97;67.41
24422;BME280;12600;53.326;-6.298;2023-06-26T02:53:33;101201.94;;;15.91;67.67
24422;BME280;12600;53.326;-6.298;2023-06-26T02:56:24;101198.44;;;16.03;67.07
24422;BME280;12600;53.326;-6.298;2023-06-26T02:59:17;101208.50;;;16.07;67.01
24422;BME280;12600;53.326;-6.298;2023-06-26T03:02:07;101202.09;;;15.86;67.45
24422;BME280;12600;53.326;-6.298;2023-06-26T03:05:01;101215.31;;;16.01;67.53
24422;BME280;12600;53.326;-6.298;2023-06-26T03:07:52;101221.69;;;15.93;67.99
24422;BME280;12600;53.326;-6.298;2023-06-26T03:10:43;101218.25;;;15.96;67.54
24422;BME280;12600;53.326;-6.298;2023-06-26T03:13:34;101217.31;;;15.92;67.54
24422;BME280;12600;53.326;-6.298;2023-06-26T03:16:23;101212.94;;;15.91;68.02
24422;BME280;12600;53.326;-6.298;2023-06-26T03:19:13;101211.69;;;15.80;68.84
24422;BME280;12600;53.326;-6.298;2023-06-26T03:22:22;101211.50;;;15.85;68.42
24422;BME280;12600;53.326;-6.298;2023-06-26T03:25:12;101208.66;;;15.73;68.75
24422;BME280;12600;53.326;-6.298;2023-06-26T03:28:03;101212.22;;;15.73;69.12
24422;BME280;12600;53.326;-6.298;2023-06-26T03:30:54;101217.88;;;15.77;69.00
24422;BME280;12600;53.326;-6.298;2023-06-26T03:33:45;101220.97;;;15.75;68.95
24422;BME280;12600;53.326;-6.298;2023-06-26T03:36:35;101225.31;;;15.76;68.78
24422;BME280;12600;53.326;-6.298;2023-06-26T03:39:25;101224.22;;;15.60;69.71
24422;BME280;12600;53.326;-6.298;2023-06-26T03:42:14;101227.78;;;15.60;70.01
24422;BME280;12600;53.326;-6.298;2023-06-26T03:45:06;101222.47;;;15.64;69.41
24422;BME280;12600;53.326;-6.298;2023-06-26T03:47:56;101234.28;;;15.64;69.58
24422;BME280;12600;53.326;-6.298;2023-06-26T03:50:45;101235.75;;;15.62;69.86
24422;BME280;12600;53.326;-6.298;2023-06-26T03:53:36;101214.34;;;15.59;69.64
24422;BME280;12600;53.326;-6.298;2023-06-26T03:56:25;101230.88;;;15.68;69.78
24422;BME280;12600;53.326;-6.298;2023-06-26T03:59:15;101229.91;;;15.63;69.58
24422;BME280;12600;53.326;-6.298;2023-06-26T04:02:06;101225.53;;;15.62;69.96
24422;BME280;12600;53.326;-6.298;2023-06-26T04:04:55;101234.44;;;15.68;69.66
24422;BME280;12600;53.326;-6.298;2023-06-26T04:07:45;101226.97;;;15.69;69.38
24422;BME280;12600;53.326;-6.298;2023-06-26T04:10:35;101243.66;;;15.72;69.19
24422;BME280;12600;53.326;-6.298;2023-06-26T04:13:26;101232.66;;;15.63;69.66
24422;BME280;12600;53.326;-6.298;2023-06-26T04:16:15;101197.38;;;15.48;69.54
24422;BME280;12600;53.326;-6.298;2023-06-26T04:19:06;101248.34;;;15.72;69.08
24422;BME280;12600;53.326;-6.298;2023-06-26T04:21:56;101245.59;;;15.72;69.45
24422;BME280;12600;53.326;-6.298;2023-06-26T04:24:46;101236.03;;;15.69;69.45
24422;BME280;12600;53.326;-6.298;2023-06-26T04:27:35;101242.53;;;15.73;69.46
24422;BME280;12600;53.326;-6.298;2023-06-26T04:30:27;101233.50;;;15.64;69.82
24422;BME280;12600;53.326;-6.298;2023-06-26T04:33:18;101249.69;;;15.65;70.26
24422;BME280;12600;53.326;-6.298;2023-06-26T04:36:08;101253.72;;;15.59;70.36
24422;BME280;12600;53.326;-6.298;2023-06-26T04:38:59;101265.88;;;15.67;70.15
24422;BME280;12600;53.326;-6.298;2023-06-26T04:41:48;101255.66;;;15.68;70.41
24422;BME280;12600;53.326;-6.298;2023-06-26T04:44:38;101269.09;;;15.69;69.90
24422;BME280;12600;53.326;-6.298;2023-06-26T04:47:29;101274.63;;;15.69;69.90
24422;BME280;12600;53.326;-6.298;2023-06-26T04:50:18;101276.06;;;15.75;69.81
24422;BME280;12600;53.326;-6.298;2023-06-26T04:53:09;101293.72;;;15.83;69.25
24422;BME280;12600;53.326;-6.298;2023-06-26T04:55:58;101291.28;;;15.81;69.78
24422;BME280;12600;53.326;-6.298;2023-06-26T04:58:48;101295.16;;;15.89;69.34
24422;BME280;12600;53.326;-6.298;2023-06-26T05:01:37;101297.28;;;15.83;69.76
24422;BME280;12600;53.326;-6.298;2023-06-26T05:04:27;101292.59;;;15.75;69.26
24422;BME280;12600;53.326;-6.298;2023-06-26T05:07:16;101285.44;;;15.83;69.61
24422;BME280;12600;53.326;-6.298;2023-06-26T05:10:08;101291.09;;;15.86;69.56
24422;BME280;12600;53.326;-6.298;2023-06-26T05:12:57;101300.19;;;15.78;69.81
24422;BME280;12600;53.326;-6.298;2023-06-26T05:15:47;101297.28;;;15.83;69.74
24422;BME280;12600;53.326;-6.298;2023-06-26T05:18:36;101298.25;;;15.79;69.63
24422;BME280;12600;53.326;-6.298;2023-06-26T05:21:26;101312.63;;;15.93;69.25
24422;BME280;12600;53.326;-6.298;2023-06-26T05:24:16;101311.97;;;15.96;69.00
24422;BME280;12600;53.326;-6.298;2023-06-26T05:27:09;101313.44;;;15.93;69.06
24422;BME280;12600;53.326;-6.298;2023-06-26T05:29:59;101310.03;;;15.97;69.21
24422;BME280;12600;53.326;-6.298;2023-06-26T05:32:49;101303.41;;;15.89;69.60
24422;BME280;12600;53.326;-6.298;2023-06-26T05:35:40;101310.88;;;15.88;69.34
24422;BME280;12600;53.326;-6.298;2023-06-26T05:38:30;101321.84;;;16.06;69.33
24422;BME280;12600;53.326;-6.298;2023-06-26T05:41:20;101314.50;;;16.10;69.17
24422;BME280;12600;53.326;-6.298;2023-06-26T05:44:11;101327.13;;;16.19;68.85
24422;BME280;12600;53.326;-6.298;2023-06-26T05:47:01;101330.84;;;16.23;68.97
24422;BME280;12600;53.326;-6.298;2023-06-26T05:49:50;101320.28;;;16.26;68.63
24422;BME280;12600;53.326;-6.298;2023-06-26T05:52:40;101321.56;;;16.37;68.38
24422;BME280;12600;53.326;-6.298;2023-06-26T05:55:30;101328.69;;;16.38;68.08
24422;BME280;12600;53.326;-6.298;2023-06-26T05:58:20;101315.38;;;16.40;68.52
24422;BME280;12600;53.326;-6.298;2023-06-26T06:01:12;101312.75;;;16.43;67.79
24422;BME280;12600;53.326;-6.298;2023-06-26T06:04:01;101312.22;;;16.50;68.12
24422;BME280;12600;53.326;-6.298;2023-06-26T06:06:51;101322.88;;;16.69;67.88
24422;BME280;12600;53.326;-6.298;2023-06-26T06:09:40;101328.97;;;16.74;67.39
24422;BME280;12600;53.326;-6.298;2023-06-26T06:12:29;101324.38;;;16.87;67.35
24422;BME280;12600;53.326;-6.298;2023-06-26T06:15:19;101322.28;;;17.05;66.58
24422;BME280;12600;53.326;-6.298;2023-06-26T06:18:09;101315.88;;;17.13;66.63
24422;BME280;12600;53.326;-6.298;2023-06-26T06:20:59;101331.72;;;17.25;66.04
24422;BME280;12600;53.326;-6.298;2023-06-26T06:23:48;101331.56;;;17.21;65.13
24422;BME280;12600;53.326;-6.298;2023-06-26T06:26:37;101331.38;;;17.26;65.03
24422;BME280;12600;53.326;-6.298;2023-06-26T06:29:27;101336.50;;;17.37;65.45
24422;BME280;12600;53.326;-6.298;2023-06-26T06:32:16;101349.03;;;17.34;64.63
24422;BME280;12600;53.326;-6.298;2023-06-26T06:35:07;101332.31;;;17.30;64.23
24422;BME280;12600;53.326;-6.298;2023-06-26T06:37:58;101352.38;;;17.40;64.25
24422;BME280;12600;53.326;-6.298;2023-06-26T06:40:48;101345.31;;;17.51;64.58
24422;BME280;12600;53.326;-6.298;2023-06-26T06:43:38;101345.66;;;17.49;64.40
24422;BME280;12600;53.326;-6.298;2023-06-26T06:46:27;101354.47;;;17.43;64.02
24422;BME280;12600;53.326;-6.298;2023-06-26T06:49:16;101338.78;;;17.34;64.15
24422;BME280;12600;53.326;-6.298;2023-06-26T06:52:07;101351.75;;;17.55;63.93
24422;BME280;12600;53.326;-6.298;2023-06-26T06:54:57;101364.50;;;17.47;63.85
24422;BME280;12600;53.326;-6.298;2023-06-26T06:57:47;101371.00;;;17.63;63.52
24422;BME280;12600;53.326;-6.298;2023-06-26T07:00:36;101355.47;;;17.59;63.13
24422;BME280;12600;53.326;-6.298;2023-06-26T07:03:26;101366.91;;;17.70;63.11
24422;BME280;12600;53.326;-6.298;2023-06-26T07:06:15;101372.25;;;17.75;62.40
24422;BME280;12600;53.326;-6.298;2023-06-26T07:09:06;101380.00;;;17.81;61.71
24422;BME280;12600;53.326;-6.298;2023-06-26T07:11:56;101377.00;;;17.86;61.41
24422;BME280;12600;53.326;-6.298;2023-06-26T07:14:46;101386.00;;;17.96;60.69
24422;BME280;12600;53.326;-6.298;2023-06-26T07:17:35;101378.88;;;17.95;60.57
24422;BME280;12600;53.326;-6.298;2023-06-26T07:20:26;101390.66;;;18.04;61.07
24422;BME280;12600;53.326;-6.298;2023-06-26T07:23:15;101386.53;;;18.10;60.45
24422;BME280;12600;53.326;-6.298;2023-06-26T07:26:06;101373.28;;;18.15;59.72
24422;BME280;12600;53.326;-6.298;2023-06-26T07:28:55;101379.16;;;18.14;58.85
24422;BME280;12600;53.326;-6.298;2023-06-26T07:31:44;101393.47;;;18.28;59.41
24422;BME280;12600;53.326;-6.298;2023-06-26T07:34:34;101387.25;;;18.31;59.08
24422;BME280;12600;53.326;-6.298;2023-06-26T07:37:23;101399.72;;;18.50;58.48
24422;BME280;12600;53.326;-6.298;2023-06-26T07:40:13;101396.75;;;18.55;57.72
24422;BME280;12600;53.326;-6.298;2023-06-26T07:43:07;101393.06;;;18.63;58.02
24422;BME280;12600;53.326;-6.298;2023-06-26T07:45:56;101397.25;;;18.69;57.25
24422;BME280;12600;53.326;-6.298;2023-06-26T07:48:46;101398.13;;;18.97;56.70
24422;BME280;12600;53.326;-6.298;2023-06-26T07:51:36;101403.53;;;19.18;56.45
24422;BME280;12600;53.326;-6.298;2023-06-26T07:54:25;101395.63;;;19.45;56.25
24422;BME280;12600;53.326;-6.298;2023-06-26T07:57:14;101405.19;;;19.60;55.98
24422;BME280;12600;53.326;-6.298;2023-06-26T08:00:08;101396.78;;;19.84;55.53
24422;BME280;12600;53.326;-6.298;2023-06-26T08:03:01;101403.81;;;20.09;54.90
24422;BME280;12600;53.326;-6.298;2023-06-26T08:05:50;101403.91;;;20.29;54.44
24422;BME280;12600;53.326;-6.298;2023-06-26T08:08:40;101391.97;;;20.56;53.53
24422;BME280;12600;53.326;-6.298;2023-06-26T08:11:30;101400.19;;;20.68;52.06
24422;BME280;12600;53.326;-6.298;2023-06-26T08:14:19;101406.03;;;21.14;52.88
24422;BME280;12600;53.326;-6.298;2023-06-26T08:17:10;101394.84;;;21.11;51.51
24422;BME280;12600;53.326;-6.298;2023-06-26T08:20:00;101409.03;;;20.90;51.15
24422;BME280;12600;53.326;-6.298;2023-06-26T08:22:49;101413.50;;;20.94;51.99
24422;BME280;12600;53.326;-6.298;2023-06-26T08:25:40;101405.97;;;20.95;52.39
24422;BME280;12600;53.326;-6.298;2023-06-26T08:28:29;101414.75;;;20.97;52.38
24422;BME280;12600;53.326;-6.298;2023-06-26T08:31:19;101424.94;;;21.09;51.36
24422;BME280;12600;53.326;-6.298;2023-06-26T08:34:10;101408.22;;;21.24;50.76
24422;BME280;12600;53.326;-6.298;2023-06-26T08:36:59;101422.03;;;21.56;49.87
24422;BME280;12600;53.326;-6.298;2023-06-26T08:39:50;101416.72;;;21.67;49.96
24422;BME280;12600;53.326;-6.298;2023-06-26T08:42:39;101423.00;;;21.64;49.28
24422;BME280;12600;53.326;-6.298;2023-06-26T08:45:29;101430.97;;;21.46;49.74
24422;BME280;12600;53.326;-6.298;2023-06-26T08:48:19;101424.84;;;21.75;49.78
24422;BME280;12600;53.326;-6.298;2023-06-26T08:51:13;101423.78;;;22.03;48.44
24422;BME280;12600;53.326;-6.298;2023-06-26T08:54:08;101432.13;;;22.03;47.59
24422;BME280;12600;53.326;-6.298;2023-06-26T08:56:59;101430.91;;;22.43;47.68
24422;BME280;12600;53.326;-6.298;2023-06-26T08:59:49;101415.25;;;22.57;46.95
24422;BME280;12600;53.326;-6.298;2023-06-26T09:02:39;101415.59;;;22.79;46.42
24422;BME280;12600;53.326;-6.298;2023-06-26T09:05:32;101413.00;;;23.16;46.19
24422;BME280;12600;53.326;-6.298;2023-06-26T09:08:24;101418.69;;;23.23;44.66
24422;BME280;12600;53.326;-6.298;2023-06-26T09:11:14;101416.41;;;23.32;43.94
24422;BME280;12600;53.326;-6.298;2023-06-26T09:14:03;101410.44;;;23.34;43.45
24422;BME280;12600;53.326;-6.298;2023-06-26T09:16:55;101414.06;;;23.08;43.62
24422;BME280;12600;53.326;-6.298;2023-06-26T09:19:46;101421.97;;;23.02;43.20
24422;BME280;12600;53.326;-6.298;2023-06-26T09:22:40;101421.97;;;23.02;43.73
24422;BME280;12600;53.326;-6.298;2023-06-26T09:25:31;101423.09;;;22.98;43.01
24422;BME280;12600;53.326;-6.298;2023-06-26T09:28:20;101415.41;;;23.17;43.34
24422;BME280;12600;53.326;-6.298;2023-06-26T09:31:10;101428.25;;;23.26;42.82
24422;BME280;12600;53.326;-6.298;2023-06-26T09:34:01;101423.41;;;23.49;42.64
24422;BME280;12600;53.326;-6.298;2023-06-26T09:36:53;101428.31;;;23.89;41.37
24422;BME280;12600;53.326;-6.298;2023-06-26T09:39:43;101425.28;;;24.05;41.56
24422;BME280;12600;53.326;-6.298;2023-06-26T09:42:34;101442.00;;;24.35;40.83
24422;BME280;12600;53.326;-6.298;2023-06-26T09:45:24;101430.72;;;24.28;40.32
24422;BME280;12600;53.326;-6.298;2023-06-26T09:48:14;101427.13;;;24.27;40.18
24422;BME280;12600;53.326;-6.298;2023-06-26T09:51:05;101436.97;;;24.51;39.65
24422;BME280;12600;53.326;-6.298;2023-06-26T09:54:01;101432.94;;;24.49;38.87
24422;BME280;12600;53.326;-6.298;2023-06-26T09:56:50;101431.16;;;24.71;39.83
24422;BME280;12600;53.326;-6.298;2023-06-26T09:59:43;101428.75;;;24.73;39.08
24422;BME280;12600;53.326;-6.298;2023-06-26T10:02:33;101456.63;;;24.25;39.73
24422;BME280;12600;53.326;-6.298;2023-06-26T10:05:23;101444.41;;;23.99;39.89
24422;BME280;12600;53.326;-6.298;2023-06-26T10:08:13;101435.88;;;24.22;39.71
24422;BME280;12600;53.326;-6.298;2023-06-26T10:11:02;101447.91;;;24.71;38.83
24422;BME280;12600;53.326;-6.298;2023-06-26T10:13:54;101441.75;;;25.02;38.09
24422;BME280;12600;53.326;-6.298;2023-06-26T10:17:08;101432.84;;;24.86;37.36
24422;BME280;12600;53.326;-6.298;2023-06-26T10:20:01;101447.66;;;24.42;37.73
24422;BME280;12600;53.326;-6.298;2023-06-26T10:22:53;101454.03;;;24.39;38.35
24422;BME280;12600;53.326;-6.298;2023-06-26T10:25:45;101462.00;;;24.41;38.16
24422;BME280;12600;53.326;-6.298;2023-06-26T10:28:38;101457.44;;;24.63;38.28
24422;BME280;12600;53.326;-6.298;2023-06-26T10:31:29;101453.00;;;25.06;37.83
24422;BME280;12600;53.326;-6.298;2023-06-26T10:34:21;101450.47;;;24.90;36.65
24422;BME280;12600;53.326;-6.298;2023-06-26T10:37:12;101456.94;;;24.16;37.22
24422;BME280;12600;53.326;-6.298;2023-06-26T10:40:02;101469.28;;;23.82;38.00
24422;BME280;12600;53.326;-6.298;2023-06-26T10:42:52;101483.16;;;23.18;40.46
24422;BME280;12600;53.326;-6.298;2023-06-26T10:45:55;101484.69;;;22.93;42.42
24422;BME280;12600;53.326;-6.298;2023-06-26T10:49:00;101507.63;;;22.40;43.79
24422;BME280;12600;53.326;-6.298;2023-06-26T10:51:52;101514.84;;;22.22;44.09
24422;BME280;12600;53.326;-6.298;2023-06-26T10:54:42;101509.56;;;22.17;44.39
24422;BME280;12600;53.326;-6.298;2023-06-26T10:57:32;101507.81;;;22.09;44.89
24422;BME280;12600;53.326;-6.298;2023-06-26T11:00:25;101505.22;;;22.00;45.06
24422;BME280;12600;53.326;-6.298;2023-06-26T11:03:23;101514.41;;;22.20;45.51
24422;BME280;12600;53.326;-6.298;2023-06-26T11:06:14;101512.13;;;22.25;45.96
24422;BME280;12600;53.326;-6.298;2023-06-26T11:09:10;101504.34;;;22.34;45.67
24422;BME280;12600;53.326;-6.298;2023-06-26T11:12:03;101539.00;;;21.98;46.60
24422;BME280;12600;53.326;-6.298;2023-06-26T11:14:55;101522.19;;;21.40;49.77
24422;BME280;12600;53.326;-6.298;2023-06-26T11:17:46;101531.34;;;21.09;51.41
24422;BME280;12600;53.326;-6.298;2023-06-26T11:20:36;101533.41;;;20.81;53.73
24422;BME280;12600;53.326;-6.298;2023-06-26T11:23:25;101549.69;;;20.66;53.73
24422;BME280;12600;53.326;-6.298;2023-06-26T11:26:19;101530.81;;;20.72;53.60
24422;BME280;12600;53.326;-6.298;2023-06-26T11:29:10;101534.47;;;21.08;52.93
24422;BME280;12600;53.326;-6.298;2023-06-26T11:32:03;101535.00;;;21.45;52.48
24422;BME280;12600;53.326;-6.298;2023-06-26T11:34:53;101529.47;;;21.64;50.62
24422;BME280;12600;53.326;-6.298;2023-06-26T11:37:43;101528.19;;;21.97;49.76
24422;BME280;12600;53.326;-6.298;2023-06-26T11:40:34;101533.84;;;22.00;48.73
24422;BME280;12600;53.326;-6.298;2023-06-26T11:43:26;101522.78;;;21.85;47.73
24422;BME280;12600;53.326;-6.298;2023-06-26T11:46:17;101541.84;;;21.83;47.38
24422;BME280;12600;53.326;-6.298;2023-06-26T11:49:07;101546.69;;;21.70;47.58
24422;BME280;12600;53.326;-6.298;2023-06-26T11:51:57;101548.16;;;21.64;48.95
24422;BME280;12600;53.326;-6.298;2023-06-26T11:54:47;101541.66;;;21.75;49.49
24422;BME280;12600;53.326;-6.298;2023-06-26T11:57:37;101543.44;;;22.03;49.04
24422;BME280;12600;53.326;-6.298;2023-06-26T12:00:27;101542.94;;;22.55;48.62
24422;BME280;12600;53.326;-6.298;2023-06-26T12:03:17;101536.97;;;22.99;47.95
24422;BME280;12600;53.326;-6.298;2023-06-26T12:06:06;101556.63;;;23.33;46.23
24422;BME280;12600;53.326;-6.298;2023-06-26T12:08:56;101551.28;;;23.47;45.57
24422;BME280;12600;53.326;-6.298;2023-06-26T12:11:49;101559.91;;;23.38;45.46
24422;BME280;12600;53.326;-6.298;2023-06-26T12:14:40;101553.13;;;23.62;45.27
24422;BME280;12600;53.326;-6.298;2023-06-26T12:17:31;101549.31;;;23.74;44.58
24422;BME280;12600;53.326;-6.298;2023-06-26T12:20:22;101537.81;;;24.09;43.74
24422;BME280;12600;53.326;-6.298;2023-06-26T12:23:13;101510.16;;;24.31;42.73
24422;BME280;12600;53.326;-6.298;2023-06-26T12:26:17;101536.56;;;24.74;40.47
24422;BME280;12600;53.326;-6.298;2023-06-26T12:29:08;101527.13;;;24.89;39.29
24422;BME280;12600;53.326;-6.298;2023-06-26T12:31:59;101536.59;;;24.77;38.10
24422;BME280;12600;53.326;-6.298;2023-06-26T12:34:51;101523.38;;;25.15;38.24
24422;BME280;12600;53.326;-6.298;2023-06-26T12:37:43;101522.25;;;25.85;38.36
24422;BME280;12600;53.326;-6.298;2023-06-26T12:40:34;101532.41;;;26.29;36.21
24422;BME280;12600;53.326;-6.298;2023-06-26T12:43:25;101532.91;;;26.56;35.79
24422;BME280;12600;53.326;-6.298;2023-06-26T12:46:15;101532.13;;;26.95;35.54
24422;BME280;12600;53.326;-6.298;2023-06-26T12:49:05;101520.97;;;27.09;35.33
24422;BME280;12600;53.326;-6.298;2023-06-26T12:52:16;101514.91;;;27.00;33.76
24422;BME280;12600;53.326;-6.298;2023-06-26T12:55:07;101524.56;;;27.17;33.12
24422;BME280;12600;53.326;-6.298;2023-06-26T12:57:57;101528.59;;;27.19;33.48
24422;BME280;12600;53.326;-6.298;2023-06-26T13:00:46;101521.34;;;27.32;34.06
24422;BME280;12600;53.326;-6.298;2023-06-26T13:03:36;101519.28;;;27.54;33.31
24422;BME280;12600;53.326;-6.298;2023-06-26T13:06:25;101523.75;;;27.38;33.38
24422;BME280;12600;53.326;-6.298;2023-06-26T13:09:16;101532.16;;;27.30;34.27
24422;BME280;12600;53.326;-6.298;2023-06-26T13:12:07;101529.75;;;27.18;34.52
24422;BME280;12600;53.326;-6.298;2023-06-26T13:14:56;101526.53;;;27.02;35.40
24422;BME280;12600;53.326;-6.298;2023-06-26T13:17:46;101533.72;;;26.60;35.98
24422;BME280;12600;53.326;-6.298;2023-06-26T13:20:35;101522.25;;;25.89;36.93
24422;BME280;12600;53.326;-6.298;2023-06-26T13:23:25;101533.44;;;25.85;37.32
24422;BME280;12600;53.326;-6.298;2023-06-26T13:26:16;101527.94;;;26.10;37.64
24422;BME280;12600;53.326;-6.298;2023-06-26T13:29:23;101537.59;;;26.20;36.99
24422;BME280;12600;53.326;-6.298;2023-06-26T13:32:12;101555.66;;;26.37;37.23
24422;BME280;12600;53.326;-6.298;2023-06-26T13:35:01;101545.59;;;26.18;37.17
24422;BME280;12600;53.326;-6.298;2023-06-26T13:37:51;101550.34;;;26.14;37.91
24422;BME280;12600;53.326;-6.298;2023-06-26T13:40:41;101555.97;;;26.07;37.92
24422;BME280;12600;53.326;-6.298;2023-06-26T13:43:31;101545.19;;;26.19;38.15
24422;BME280;12600;53.326;-6.298;2023-06-26T13:46:21;101538.34;;;26.13;38.14
24422;BME280;12600;53.326;-6.298;2023-06-26T13:49:11;101546.41;;;26.26;37.71
24422;BME280;12600;53.326;-6.298;2023-06-26T13:52:00;101552.06;;;26.33;36.97
24422;BME280;12600;53.326;-6.298;2023-06-26T13:54:49;101546.34;;;26.11;37.11
24422;BME280;12600;53.326;-6.298;2023-06-26T13:57:39;101558.28;;;25.98;37.23
24422;BME280;12600;53.326;-6.298;2023-06-26T14:00:31;101533.41;;;25.78;36.35
24422;BME280;12600;53.326;-6.298;2023-06-26T14:03:21;101560.72;;;25.99;36.95
24422;BME280;12600;53.326;-6.298;2023-06-26T14:06:10;101539.63;;;26.23;37.49
24422;BME280;12600;53.326;-6.298;2023-06-26T14:09:00;101546.84;;;26.31;38.18
24422;BME280;12600;53.326;-6.298;2023-06-26T14:11:49;101541.72;;;26.58;37.78
24422;BME280;12600;53.326;-6.298;2023-06-26T14:14:39;101555.63;;;26.30;37.27
24422;BME280;12600;53.326;-6.298;2023-06-26T14:17:29;101551.13;;;26.00;37.68
24422;BME280;12600;53.326;-6.298;2023-06-26T14:20:19;101550.09;;;25.64;38.11
24422;BME280;12600;53.326;-6.298;2023-06-26T14:23:10;101556.22;;;25.25;38.58
24422;BME280;12600;53.326;-6.298;2023-06-26T14:25:59;101556.75;;;24.97;39.11
24422;BME280;12600;53.326;-6.298;2023-06-26T14:28:49;101543.16;;;24.96;39.41
24422;BME280;12600;53.326;-6.298;2023-06-26T14:31:38;101556.09;;;24.70;39.85
24422;BME280;12600;53.326;-6.298;2023-06-26T14:34:29;101554.28;;;24.51;40.07
24422;BME280;12600;53.326;-6.298;2023-06-26T14:37:19;101540.97;;;24.38;40.27
24422;BME280;12600;53.326;-6.298;2023-06-26T14:40:10;101548.59;;;24.41;40.36
24422;BME280;12600;53.326;-6.298;2023-06-26T14:43:00;101554.13;;;24.71;39.95